createdAt,value
2019-05-29T00:00:44.057Z,21.71
2019-05-29T00:03:14.476Z,21.72
2019-05-29T00:05:43.985Z,21.42
2019-05-29T00:08:14.641Z,21.50
2019-05-29T00:10:44.955Z,21.12
2019-05-29T00:13:14.678Z,21.21
2019-05-29T00:15:44.357Z,21.09
2019-05-29T00:18:14.574Z,20.91
2019-05-29T00:20:44.520Z,20.94
2019-05-29T00:23:14.747Z,20.86
2019-05-29T00:25:44.297Z,20.76
2019-05-29T00:28:14.769Z,20.83
2019-05-29T00:30:44.586Z,20.69
2019-05-29T00:33:14.389Z,20.64
2019-05-29T00:35:43.950Z,20.49
2019-05-29T00:38:14.485Z,20.56
2019-05-29T00:40:44.498Z,20.53
2019-05-29T00:43:15.337Z,20.41
2019-05-29T00:45:45.387Z,20.26
2019-05-29T00:48:16.080Z,20.21
2019-05-29T00:50:45.710Z,20.39
2019-05-29T00:53:16.279Z,20.37
2019-05-29T00:55:46.070Z,20.27
2019-05-29T00:58:17.213Z,20.21
2019-05-29T01:00:46.697Z,20.16
2019-05-29T01:03:16.076Z,20.16
2019-05-29T01:05:45.837Z,20.11
2019-05-29T01:08:16.442Z,20.16
2019-05-29T01:10:46.145Z,20.10
2019-05-29T01:13:17.152Z,20.12
2019-05-29T01:15:47.306Z,20.23
2019-05-29T01:18:17.626Z,20.36
2019-05-29T01:20:47.555Z,20.23
2019-05-29T01:23:18.264Z,20.27
2019-05-29T01:25:47.706Z,20.38
2019-05-29T01:28:17.171Z,20.29
2019-05-29T01:30:46.849Z,20.43
2019-05-29T01:33:19.888Z,20.20
2019-05-29T01:35:48.060Z,20.12
2019-05-29T01:38:17.545Z,20.12
2019-05-29T01:40:47.438Z,20.30
2019-05-29T01:43:17.517Z,20.13
2019-05-29T01:45:46.953Z,20.05
2019-05-29T01:48:17.377Z,20.11
2019-05-29T01:50:47.376Z,20.11
2019-05-29T01:53:17.693Z,20.13
2019-05-29T01:55:47.157Z,19.94
2019-05-29T01:58:17.950Z,19.94
2019-05-29T02:00:48.557Z,19.95
2019-05-29T02:03:18.042Z,20.03
2019-05-29T02:05:47.532Z,20.14
2019-05-29T02:08:18.059Z,20.17
2019-05-29T02:10:47.569Z,20.09
2019-05-29T02:13:17.332Z,20.03
2019-05-29T02:15:47.206Z,20.02
2019-05-29T02:18:17.104Z,20.07
2019-05-29T02:20:46.500Z,19.89
2019-05-29T02:23:15.870Z,19.88
2019-05-29T02:25:45.755Z,19.90
2019-05-29T02:28:16.326Z,19.70
2019-05-29T02:30:45.837Z,19.52
2019-05-29T02:33:15.444Z,19.35
2019-05-29T02:35:45.082Z,19.42
2019-05-29T02:38:14.469Z,19.44
2019-05-29T02:40:44.341Z,19.52
2019-05-29T02:43:14.309Z,19.40
2019-05-29T02:45:53.588Z,19.22
2019-05-29T02:48:15.219Z,19.18
2019-05-29T02:50:44.974Z,19.10
2019-05-29T02:53:14.563Z,19.08
2019-05-29T02:55:43.943Z,19.03
2019-05-29T02:58:13.327Z,19.07
2019-05-29T03:00:54.971Z,19.15
2019-05-29T03:03:27.297Z,19.15
2019-05-29T03:05:57.956Z,19.08
2019-05-29T03:08:29.544Z,18.98
2019-05-29T03:10:59.056Z,18.92
2019-05-29T03:13:30.524Z,18.86
2019-05-29T03:16:10.354Z,18.87
2019-05-29T03:18:32.545Z,18.88
2019-05-29T03:21:02.412Z,18.77
2019-05-29T03:23:33.949Z,18.74
2019-05-29T03:26:03.661Z,18.83
2019-05-29T03:28:34.920Z,19.01
2019-05-29T03:31:04.750Z,18.93
2019-05-29T03:33:43.591Z,18.84
2019-05-29T03:36:05.757Z,18.72
2019-05-29T03:38:35.472Z,18.86
2019-05-29T03:41:05.065Z,18.91
2019-05-29T03:43:36.005Z,18.89
2019-05-29T03:46:06.193Z,18.96
2019-05-29T03:48:35.678Z,18.83
2019-05-29T03:51:05.302Z,18.96
2019-05-29T03:53:36.755Z,18.88
2019-05-29T03:56:06.274Z,19.12
2019-05-29T03:58:37.568Z,19.23
2019-05-29T04:01:07.390Z,19.18
2019-05-29T04:03:38.149Z,19.12
2019-05-29T04:06:08.165Z,19.20
2019-05-29T04:08:38.474Z,19.16
2019-05-29T04:11:08.722Z,19.41
2019-05-29T04:13:39.471Z,19.43
2019-05-29T04:16:10.640Z,19.49
2019-05-29T04:18:41.764Z,19.48
2019-05-29T04:21:12.175Z,19.62
2019-05-29T04:23:43.323Z,19.71
2019-05-29T04:26:16.070Z,19.67
2019-05-29T04:28:46.124Z,19.69
2019-05-29T04:31:15.926Z,19.80
2019-05-29T04:33:45.696Z,19.89
2019-05-29T04:36:15.312Z,20.06
2019-05-29T04:38:44.790Z,20.24
2019-05-29T04:41:14.209Z,20.43
2019-05-29T04:43:43.706Z,20.61
2019-05-29T04:46:13.278Z,20.72
2019-05-29T04:48:43.058Z,20.86
2019-05-29T04:51:12.653Z,20.98
2019-05-29T04:53:42.248Z,21.09
2019-05-29T04:56:12.068Z,21.18
2019-05-29T04:58:41.804Z,21.23
2019-05-29T05:01:11.214Z,21.26
2019-05-29T05:03:40.673Z,21.29
2019-05-29T05:06:10.618Z,21.29
2019-05-29T05:08:40.398Z,21.31
2019-05-29T05:11:10.752Z,21.34
2019-05-29T05:13:40.187Z,21.36
2019-05-29T05:16:09.680Z,21.39
2019-05-29T05:18:40.234Z,21.43
2019-05-29T05:21:10.058Z,21.50
2019-05-29T05:23:40.497Z,21.55
2019-05-29T05:26:10.472Z,21.65
2019-05-29T05:28:43.664Z,21.65
2019-05-29T05:31:11.582Z,21.67
2019-05-29T05:33:41.256Z,21.78
2019-05-29T05:36:11.025Z,21.86
2019-05-29T05:38:41.175Z,21.90
2019-05-29T05:41:10.719Z,22.05
2019-05-29T05:43:41.345Z,22.15
2019-05-29T05:46:11.577Z,22.22
2019-05-29T05:48:41.676Z,22.31
2019-05-29T05:51:11.418Z,22.28
2019-05-29T05:53:41.785Z,22.48
2019-05-29T05:56:11.575Z,22.64
2019-05-29T05:58:42.199Z,22.62
2019-05-29T06:01:12.340Z,22.70
2019-05-29T06:03:42.778Z,22.72
2019-05-29T06:06:12.197Z,22.71
2019-05-29T06:08:42.497Z,22.72
2019-05-29T06:11:12.379Z,22.89
2019-05-29T06:13:42.758Z,22.84
2019-05-29T06:16:12.406Z,23.04
2019-05-29T06:18:43.099Z,23.25
2019-05-29T06:21:13.239Z,23.39
2019-05-29T06:23:43.463Z,23.44
2019-05-29T06:26:13.649Z,23.48
2019-05-29T06:28:43.561Z,23.45
2019-05-29T06:31:13.247Z,23.56
2019-05-29T06:33:43.970Z,23.66
2019-05-29T06:36:13.872Z,23.66
2019-05-29T06:38:44.392Z,23.81
2019-05-29T06:41:14.085Z,23.92
2019-05-29T06:43:44.401Z,24.00
2019-05-29T06:46:14.240Z,24.03
2019-05-29T06:48:57.550Z,24.08
2019-05-29T06:51:15.266Z,24.18
2019-05-29T06:53:44.661Z,24.26
2019-05-29T06:56:15.265Z,24.27
2019-05-29T06:58:45.528Z,24.36
2019-05-29T07:01:15.182Z,24.44
2019-05-29T07:03:44.814Z,24.53
2019-05-29T07:06:14.548Z,24.63
2019-05-29T07:08:47.642Z,24.68
2019-05-29T07:11:15.411Z,24.71
2019-05-29T07:13:47.483Z,24.75
2019-05-29T07:16:16.175Z,24.79
2019-05-29T07:19:23.239Z,24.85
2019-05-29T07:21:17.204Z,24.87
2019-05-29T07:23:48.656Z,24.95
2019-05-29T07:26:18.244Z,25.07
2019-05-29T07:29:06.498Z,25.16
2019-05-29T07:31:19.315Z,25.24
2019-05-29T07:33:49.089Z,25.33
2019-05-29T07:36:18.469Z,25.41
2019-05-29T07:38:57.647Z,25.52
2019-05-29T07:41:19.369Z,25.55
2019-05-29T07:43:48.907Z,25.57
2019-05-29T07:46:18.600Z,25.62
2019-05-29T07:48:50.197Z,25.73
2019-05-29T07:51:19.785Z,25.86
2019-05-29T07:53:49.566Z,25.93
2019-05-29T07:56:22.870Z,26.02
2019-05-29T07:59:01.766Z,26.13
2019-05-29T08:01:21.860Z,26.18
2019-05-29T08:03:51.450Z,26.26
2019-05-29T08:06:21.291Z,26.32
2019-05-29T08:08:50.903Z,26.37
2019-05-29T08:11:20.344Z,26.42
2019-05-29T08:13:50.110Z,26.51
2019-05-29T08:16:19.740Z,26.54
2019-05-29T08:18:52.688Z,26.54
2019-05-29T08:21:20.646Z,26.57
2019-05-29T08:23:50.769Z,26.64
2019-05-29T08:26:20.944Z,26.77
2019-05-29T08:28:51.196Z,26.88
2019-05-29T08:31:20.935Z,26.95
2019-05-29T08:33:51.306Z,27.02
2019-05-29T08:36:21.575Z,27.09
2019-05-29T08:38:51.800Z,27.19
2019-05-29T08:41:21.876Z,27.23
2019-05-29T08:43:54.705Z,27.24
2019-05-29T08:46:24.281Z,27.24
2019-05-29T08:48:53.715Z,27.21
2019-05-29T08:51:23.248Z,27.24
2019-05-29T08:53:54.669Z,27.29
2019-05-29T08:56:24.256Z,27.30
2019-05-29T08:58:53.750Z,27.34
2019-05-29T09:01:23.259Z,27.45
2019-05-29T09:03:53.464Z,27.57
2019-05-29T09:06:23.015Z,27.62
2019-05-29T09:08:54.723Z,27.67
2019-05-29T09:11:23.966Z,27.77
2019-05-29T09:13:53.675Z,27.82
2019-05-29T09:16:23.487Z,27.69
2019-05-29T09:18:53.385Z,27.70
2019-05-29T09:21:26.514Z,27.82
2019-05-29T09:23:54.218Z,27.87
2019-05-29T09:26:25.964Z,27.86
2019-05-29T09:28:55.336Z,28.16
2019-05-29T09:31:24.877Z,28.57
2019-05-29T09:33:54.383Z,29.85
2019-05-29T09:36:24.736Z,29.85
2019-05-29T09:38:54.903Z,30.42
2019-05-29T09:41:25.613Z,30.97
2019-05-29T09:43:59.699Z,31.53
2019-05-29T09:46:26.854Z,32.36
2019-05-29T09:48:56.329Z,33.18
2019-05-29T09:51:26.936Z,34.13
2019-05-29T09:53:58.230Z,35.07
2019-05-29T09:56:28.213Z,36.08
2019-05-29T09:58:59.468Z,36.45
2019-05-29T10:01:29.648Z,37.24
2019-05-29T10:04:01.902Z,38.25
2019-05-29T10:06:30.732Z,38.75
2019-05-29T10:09:01.630Z,39.11
2019-05-29T10:11:31.762Z,39.50
2019-05-29T10:14:02.758Z,40.28
2019-05-29T10:16:32.513Z,40.92
2019-05-29T10:19:03.236Z,41.08
2019-05-29T10:21:40.060Z,41.04
2019-05-29T10:24:06.042Z,41.40
2019-05-29T10:26:35.868Z,41.72
2019-05-29T10:29:09.157Z,42.27
2019-05-29T10:31:37.086Z,42.39
2019-05-29T10:34:06.797Z,42.18
2019-05-29T10:36:36.350Z,42.44
2019-05-29T10:39:08.613Z,42.71
2019-05-29T10:41:38.532Z,42.75
2019-05-29T10:44:12.442Z,42.94
2019-05-29T10:46:39.791Z,43.14
2019-05-29T10:49:09.403Z,43.65
2019-05-29T10:51:54.630Z,43.20
2019-05-29T10:54:10.890Z,42.82
2019-05-29T10:56:40.371Z,42.34
2019-05-29T10:59:09.758Z,42.69
2019-05-29T11:01:39.357Z,42.95
2019-05-29T11:04:09.003Z,43.35
2019-05-29T11:06:40.914Z,42.57
2019-05-29T11:09:09.853Z,42.65
2019-05-29T11:11:39.709Z,42.15
2019-05-29T11:14:09.318Z,41.43
2019-05-29T11:16:39.903Z,41.18
2019-05-29T11:19:09.850Z,41.80
2019-05-29T11:21:39.505Z,41.84
2019-05-29T11:24:08.908Z,42.35
2019-05-29T11:26:38.739Z,43.36
2019-05-29T11:29:08.841Z,44.33
2019-05-29T11:31:38.442Z,44.51
2019-05-29T11:34:08.151Z,44.21
2019-05-29T11:36:37.994Z,43.86
2019-05-29T11:39:09.132Z,43.56
2019-05-29T11:41:38.724Z,43.78
2019-05-29T11:44:08.114Z,44.08
2019-05-29T11:46:37.852Z,44.38
2019-05-29T11:49:07.471Z,44.43
2019-05-29T11:51:37.260Z,44.43
2019-05-29T11:54:06.854Z,44.46
2019-05-29T11:56:36.817Z,44.20
2019-05-29T11:59:06.579Z,44.41
2019-05-29T12:01:49.789Z,44.51
2019-05-29T12:04:24.333Z,44.03
2019-05-29T12:06:39.181Z,44.52
2019-05-29T12:09:10.403Z,44.04
2019-05-29T12:11:39.945Z,44.54
2019-05-29T12:14:09.936Z,44.31
2019-05-29T12:16:39.656Z,44.14
2019-05-29T12:19:09.442Z,44.24
2019-05-29T12:21:42.477Z,43.89
2019-05-29T12:24:10.486Z,42.58
2019-05-29T12:26:40.033Z,41.97
2019-05-29T12:29:11.872Z,42.06
2019-05-29T12:31:41.157Z,42.37
2019-05-29T12:34:18.935Z,42.73
2019-05-29T12:36:42.038Z,43.37
2019-05-29T12:39:11.774Z,44.24
2019-05-29T12:41:41.301Z,44.18
2019-05-29T12:44:10.852Z,44.48
2019-05-29T12:46:40.382Z,43.83
2019-05-29T12:49:10.145Z,42.76
2019-05-29T12:51:39.759Z,41.28
2019-05-29T12:54:09.391Z,40.03
2019-05-29T12:56:39.115Z,38.86
2019-05-29T12:59:09.049Z,38.21
2019-05-29T13:01:38.428Z,38.82
2019-05-29T13:04:08.010Z,39.36
2019-05-29T13:06:37.840Z,38.97
2019-05-29T13:09:08.997Z,37.90
2019-05-29T13:11:38.552Z,37.62
2019-05-29T13:14:08.274Z,36.84
2019-05-29T13:16:37.758Z,36.18
2019-05-29T13:19:07.385Z,35.56
2019-05-29T13:21:37.163Z,35.28
2019-05-29T13:24:11.318Z,35.61
2019-05-29T13:26:38.363Z,35.56
2019-05-29T13:29:07.772Z,35.45
2019-05-29T13:31:37.534Z,36.09
2019-05-29T13:34:07.361Z,37.30
2019-05-29T13:36:36.943Z,37.81
2019-05-29T13:39:08.572Z,39.00
2019-05-29T13:41:38.266Z,39.85
2019-05-29T13:44:07.994Z,40.57
2019-05-29T13:46:37.386Z,41.08
2019-05-29T13:49:07.272Z,40.78
2019-05-29T13:51:37.259Z,39.90
2019-05-29T13:54:13.454Z,40.36
2019-05-29T13:56:38.258Z,40.96
2019-05-29T13:59:08.397Z,41.07
2019-05-29T14:01:38.326Z,41.07
2019-05-29T14:04:08.607Z,40.76
2019-05-29T14:06:38.528Z,40.03
2019-05-29T14:09:09.861Z,39.12
2019-05-29T14:11:39.526Z,37.57
2019-05-29T14:14:11.347Z,36.80
2019-05-29T14:16:40.663Z,36.26
2019-05-29T14:19:10.479Z,36.10
2019-05-29T14:21:39.883Z,36.00
2019-05-29T14:24:26.217Z,35.70
2019-05-29T14:26:40.821Z,35.42
2019-05-29T14:29:11.747Z,35.33
2019-05-29T14:31:41.433Z,34.83
2019-05-29T14:34:11.150Z,34.39
2019-05-29T14:36:41.003Z,33.69
2019-05-29T14:39:11.913Z,33.60
2019-05-29T14:41:41.791Z,33.41
2019-05-29T14:44:12.054Z,33.17
2019-05-29T14:46:41.432Z,33.07
2019-05-29T14:49:13.026Z,32.98
2019-05-29T14:51:42.505Z,32.87
2019-05-29T14:54:13.065Z,32.66
2019-05-29T14:56:42.888Z,32.62
2019-05-29T14:59:13.681Z,32.40
2019-05-29T15:01:43.302Z,32.51
2019-05-29T15:04:14.499Z,32.21
2019-05-29T15:06:44.116Z,32.13
2019-05-29T15:09:13.873Z,31.91
2019-05-29T15:11:43.859Z,31.79
2019-05-29T15:14:14.479Z,31.45
2019-05-29T15:16:44.003Z,31.46
2019-05-29T15:19:15.118Z,31.42
2019-05-29T15:21:44.766Z,31.38
2019-05-29T15:24:14.157Z,31.34
2019-05-29T15:26:44.518Z,31.26
2019-05-29T15:29:16.365Z,31.15
2019-05-29T15:31:46.871Z,31.09
2019-05-29T15:34:16.745Z,30.88
2019-05-29T15:36:46.865Z,30.87
2019-05-29T15:39:16.949Z,30.75
2019-05-29T15:41:46.365Z,30.68
2019-05-29T15:44:17.110Z,30.68
2019-05-29T15:46:46.909Z,30.68
2019-05-29T15:49:17.265Z,30.64
2019-05-29T15:51:47.021Z,30.56
2019-05-29T15:54:17.522Z,30.70
2019-05-29T15:56:47.119Z,30.66
2019-05-29T15:59:18.920Z,30.48
2019-05-29T16:01:47.943Z,30.24
2019-05-29T16:04:18.032Z,29.93
2019-05-29T16:06:47.892Z,29.93
2019-05-29T16:09:18.679Z,29.91
2019-05-29T16:11:48.319Z,29.60
2019-05-29T16:14:19.030Z,29.60
2019-05-29T16:16:48.790Z,29.71
2019-05-29T16:19:18.484Z,29.77
2019-05-29T16:21:48.066Z,29.61
2019-05-29T16:24:17.467Z,29.64
2019-05-29T16:26:47.486Z,29.73
2019-05-29T16:29:18.208Z,29.53
2019-05-29T16:31:48.345Z,29.53
2019-05-29T16:34:18.928Z,29.32
2019-05-29T16:36:49.055Z,29.17
2019-05-29T16:39:19.699Z,28.92
2019-05-29T16:41:49.877Z,28.74
2019-05-29T16:44:24.282Z,28.56
2019-05-29T16:46:50.984Z,28.37
2019-05-29T16:49:21.285Z,28.27
2019-05-29T16:51:51.060Z,28.21
2019-05-29T16:54:21.098Z,28.13
2019-05-29T16:56:50.617Z,28.04
2019-05-29T16:59:21.366Z,28.01
2019-05-29T17:01:51.218Z,27.98
2019-05-29T17:04:21.709Z,27.99
2019-05-29T17:06:51.538Z,27.94
2019-05-29T17:09:22.231Z,27.93
2019-05-29T17:11:52.197Z,28.00
2019-05-29T17:14:22.812Z,28.03
2019-05-29T17:16:52.404Z,28.11
2019-05-29T17:19:23.065Z,28.06
2019-05-29T17:21:52.560Z,27.97
2019-05-29T17:24:23.058Z,27.87
2019-05-29T17:26:52.563Z,27.89
2019-05-29T17:29:22.887Z,27.86
2019-05-29T17:31:52.513Z,27.74
2019-05-29T17:34:23.206Z,27.66
2019-05-29T17:36:52.787Z,27.57
2019-05-29T17:39:23.057Z,27.55
2019-05-29T17:41:52.788Z,27.49
2019-05-29T17:44:23.560Z,27.49
2019-05-29T17:46:53.459Z,27.57
2019-05-29T17:49:32.771Z,27.47
2019-05-29T17:51:54.398Z,27.37
2019-05-29T17:54:24.017Z,27.12
2019-05-29T17:56:54.201Z,26.82
2019-05-29T17:59:24.148Z,26.56
2019-05-29T18:01:54.156Z,26.25
2019-05-29T18:04:24.915Z,26.02
2019-05-29T18:06:56.562Z,25.85
2019-05-29T18:09:27.954Z,25.77
2019-05-29T18:11:57.604Z,25.66
2019-05-29T18:14:27.603Z,25.52
2019-05-29T18:16:57.277Z,25.55
2019-05-29T18:19:28.180Z,25.65
2019-05-29T18:21:58.120Z,25.67
2019-05-29T18:24:28.331Z,25.58
2019-05-29T18:26:59.125Z,25.48
2019-05-29T18:29:29.738Z,25.41
2019-05-29T18:31:59.715Z,25.35
2019-05-29T18:34:29.781Z,25.30
2019-05-29T18:36:59.303Z,25.29
2019-05-29T18:39:28.871Z,25.33
2019-05-29T18:41:58.647Z,25.33
2019-05-29T18:44:28.918Z,25.34
2019-05-29T18:46:58.735Z,25.33
2019-05-29T18:49:28.676Z,25.35
2019-05-29T18:52:00.441Z,25.37
2019-05-29T18:54:30.266Z,25.32
2019-05-29T18:57:14.769Z,25.29
2019-05-29T18:59:31.745Z,25.41
2019-05-29T19:02:01.451Z,25.38
2019-05-29T19:04:31.911Z,25.33
2019-05-29T19:07:01.524Z,25.21
2019-05-29T19:09:31.987Z,25.16
2019-05-29T19:12:01.597Z,24.88
2019-05-29T19:14:32.389Z,24.90
2019-05-29T19:17:02.060Z,24.82
2019-05-29T19:19:32.545Z,24.73
2019-05-29T19:22:02.352Z,24.64
2019-05-29T19:24:32.826Z,24.61
2019-05-29T19:27:02.634Z,24.52
2019-05-29T19:29:33.360Z,24.50
2019-05-29T19:32:02.888Z,24.35
2019-05-29T19:34:33.532Z,24.41
2019-05-29T19:37:03.254Z,24.38
2019-05-29T19:39:34.180Z,24.43
2019-05-29T19:42:04.190Z,24.40
2019-05-29T19:44:34.580Z,24.39
2019-05-29T19:47:04.135Z,24.32
2019-05-29T19:49:35.191Z,24.39
2019-05-29T19:52:04.818Z,24.41
2019-05-29T19:54:34.275Z,24.36
2019-05-29T19:57:04.048Z,24.31
2019-05-29T19:59:34.053Z,24.23
2019-05-29T20:02:03.930Z,24.19
2019-05-29T20:04:34.648Z,24.19
2019-05-29T20:07:04.600Z,24.17
2019-05-29T20:09:35.375Z,24.16
2019-05-29T20:12:05.633Z,24.10
2019-05-29T20:14:35.879Z,24.09
2019-05-29T20:17:05.448Z,24.05
2019-05-29T20:19:38.821Z,24.01
2019-05-29T20:22:06.414Z,23.95
2019-05-29T20:24:36.907Z,23.86
2019-05-29T20:27:06.428Z,23.78
2019-05-29T20:29:36.440Z,23.69
2019-05-29T20:32:07.563Z,23.72
2019-05-29T20:34:37.222Z,23.75
2019-05-29T20:37:06.614Z,23.76
2019-05-29T20:39:36.366Z,23.74
2019-05-29T20:42:06.027Z,23.72
2019-05-29T20:44:36.664Z,23.75
2019-05-29T20:47:06.894Z,23.72
2019-05-29T20:49:37.999Z,23.65
2019-05-29T20:52:07.607Z,23.64
2019-05-29T20:54:37.697Z,23.71
2019-05-29T20:57:13.841Z,23.71
2019-05-29T20:59:43.619Z,23.66
2019-05-29T21:02:13.202Z,23.67
2019-05-29T21:04:42.950Z,23.53
2019-05-29T21:07:12.908Z,23.57
2019-05-29T21:09:43.354Z,23.60
2019-05-29T21:12:12.969Z,23.48
2019-05-29T21:14:44.580Z,23.48
2019-05-29T21:17:14.071Z,23.58
2019-05-29T21:19:44.750Z,23.57
2019-05-29T21:22:14.505Z,23.51
2019-05-29T21:24:49.514Z,23.45
2019-05-29T21:27:15.430Z,23.34
2019-05-29T21:29:45.520Z,23.28
2019-05-29T21:32:15.020Z,23.21
2019-05-29T21:34:44.411Z,23.19
2019-05-29T21:37:14.212Z,23.18
2019-05-29T21:39:44.551Z,23.11
2019-05-29T21:42:14.198Z,23.11
2019-05-29T21:44:44.908Z,23.10
2019-05-29T21:47:14.683Z,23.14
2019-05-29T21:49:45.259Z,23.13
2019-05-29T21:52:14.666Z,23.12
2019-05-29T21:54:44.144Z,23.14
2019-05-29T21:57:13.939Z,23.15
2019-05-29T21:59:43.814Z,23.09
2019-05-29T22:02:13.706Z,22.96
2019-05-29T22:04:44.599Z,22.86
2019-05-29T22:07:14.142Z,23.05
2019-05-29T22:09:43.646Z,23.02
2019-05-29T22:12:13.411Z,22.88
2019-05-29T22:14:43.101Z,22.75
2019-05-29T22:17:12.661Z,22.76
2019-05-29T22:19:42.333Z,22.65
2019-05-29T22:22:12.121Z,22.68
2019-05-29T22:24:42.233Z,22.70
2019-05-29T22:27:11.674Z,22.69
2019-05-29T22:29:41.279Z,22.68
2019-05-29T22:32:10.770Z,22.68
2019-05-29T22:34:40.685Z,22.71
2019-05-29T22:37:10.219Z,22.67
2019-05-29T22:39:39.781Z,22.67
2019-05-29T22:42:09.338Z,22.69
2019-05-29T22:44:38.841Z,22.63
2019-05-29T22:47:08.319Z,22.60
2019-05-29T22:49:37.974Z,22.54
2019-05-29T22:52:07.560Z,22.48
2019-05-29T22:54:37.208Z,22.49
2019-05-29T22:57:06.668Z,22.45
2019-05-29T22:59:36.396Z,22.43
2019-05-29T23:02:05.884Z,22.42
2019-05-29T23:04:35.414Z,22.49
2019-05-29T23:07:05.213Z,22.48
2019-05-29T23:09:34.917Z,22.48
2019-05-29T23:12:04.473Z,22.51
2019-05-29T23:14:34.126Z,22.54
2019-05-29T23:17:03.933Z,22.53
2019-05-29T23:19:33.325Z,22.55
2019-05-29T23:22:03.283Z,22.50
2019-05-29T23:24:33.080Z,22.60
2019-05-29T23:27:03.013Z,22.62
2019-05-29T23:29:47.893Z,22.63
2019-05-29T23:32:04.083Z,22.59
2019-05-29T23:34:33.770Z,22.60
2019-05-29T23:37:04.208Z,22.57
2019-05-29T23:39:33.592Z,22.60
2019-05-29T23:42:03.652Z,22.59
2019-05-29T23:44:33.449Z,22.57
2019-05-29T23:49:31.359Z,22.51
2019-05-29T23:52:02.884Z,22.53
2019-05-29T23:54:32.547Z,22.47
2019-05-29T23:57:02.129Z,22.50
2019-05-29T23:59:31.862Z,22.45
